As Sulaybiyah, Kuwait
Current Conditions -  °F | °C
As of 8:00 PM on Monday 24 Nov 2014 (Local Time) from OKBK Reporting Station
Broken Clouds Broken Clouds  
Wind Chill: 70°   Ceiling: 8000
Heat Index: 70°   Visibility: 4mi
Dew Point: 64°   Wind: 5mph
Humidity: 83%   Direction: 130°SE
Pressure: 29.85"   Gusts: NA
Location:  29.29°N, 47.83°E
Report Text: OKBK 241700Z 13004KT 7000 SCT040 BKN080 21/18 Q1011 NOSIG
Loading
Personal Weather Stations






























Interactive Weather Map New forecast layout! Learn more

10-Day Weather Forecast

Advertisements
Track Severe Weather on mobile